Time;durP1;ratioP1;P1;durP2;ratioP2;P2;SDS_P1;SDS_P2;PMS_P1;PMS_P2;Temp;Humidity;BMP_temperature;BMP_pressure;BME280_temperature;BME280_humidity;BME280_pressure;Samples;Min_cycle;Max_cycle;Signal;HPM_P1;HPM_P2
2022/09/11 00:01:52;;;;;;;41.00;36.53;;;16.20;99.90;;;;;;4964234;28;20490;-75
2022/09/11 00:04:18;;;;;;;40.97;36.45;;;16.20;99.90;;;;;;4968047;28;20100;-75
2022/09/11 00:06:44;;;;;;;39.83;35.53;;;16.30;99.90;;;;;;4967944;28;20401;-75
2022/09/11 00:09:09;;;;;;;41.47;36.97;;;16.20;99.90;;;;;;4982865;28;20131;-75
2022/09/11 00:11:40;;;;;;;42.45;35.90;;;16.20;99.90;;;;;;4985593;28;20132;-75
2022/09/11 00:14:06;;;;;;;41.00;36.03;;;16.20;99.90;;;;;;4967232;28;20057;-75
2022/09/11 00:16:35;;;;;;;43.00;32.50;;;16.20;99.90;;;;;;4984262;28;20085;-75
2022/09/11 00:19:04;;;;;;;36.13;32.35;;;16.20;99.90;;;;;;4983447;28;20054;-75
2022/09/11 00:21:30;;;;;;;36.30;32.30;;;16.10;99.90;;;;;;4982407;28;20113;-75
2022/09/11 00:23:56;;;;;;;30.70;27.08;;;16.00;99.90;;;;;;5000385;28;20050;-75
2022/09/11 00:26:23;;;;;;;32.85;29.40;;;16.00;99.90;;;;;;5001767;28;20050;-76
2022/09/11 00:28:51;;;;;;;38.45;34.15;;;15.90;99.90;;;;;;4997099;28;20121;-75
2022/09/11 00:31:19;;;;;;;34.30;30.75;;;15.90;99.90;;;;;;4998514;28;20132;-75
2022/09/11 00:33:45;;;;;;;36.30;32.45;;;15.90;99.90;;;;;;4968607;28;20500;-76
2022/09/11 00:36:14;;;;;;;34.42;30.95;;;15.90;99.90;;;;;;4984279;28;20129;-75
2022/09/11 00:38:41;;;;;;;34.05;30.45;;;15.80;99.90;;;;;;4980616;28;20072;-75
2022/09/11 00:41:12;;;;;;;32.60;29.25;;;15.80;99.90;;;;;;4986261;28;20050;-75
2022/09/11 00:43:55;;;;;;;36.95;33.08;;;15.70;99.90;;;;;;4985411;28;20097;-75
2022/09/11 00:46:33;;;;;;;36.45;32.55;;;15.70;99.90;;;;;;4985819;28;20043;-75
2022/09/11 00:49:01;;;;;;;39.28;34.33;;;15.70;99.90;;;;;;4986441;28;20089;-75
2022/09/11 00:51:32;;;;;;;40.10;33.50;;;15.60;99.90;;;;;;4983374;28;20050;-75
2022/09/11 00:53:58;;;;;;;38.35;34.35;;;15.60;99.90;;;;;;4979568;28;20050;-74
2022/09/11 00:56:28;;;;;;;39.55;34.88;;;15.60;99.90;;;;;;4983933;28;20733;-75
2022/09/11 00:58:55;;;;;;;36.85;32.85;;;15.60;99.90;;;;;;4963413;28;20065;-75
2022/09/11 01:01:21;;;;;;;36.90;32.88;;;15.60;99.90;;;;;;4966641;28;20054;-75
2022/09/11 01:03:47;;;;;;;36.90;32.90;;;15.60;99.90;;;;;;4985624;28;20060;-75
2022/09/11 01:06:13;;;;;;;32.35;29.15;;;15.60;99.90;;;;;;4967781;28;20137;-75
2022/09/11 01:08:39;;;;;;;32.20;28.77;;;15.50;99.90;;;;;;4977336;28;20742;-75
2022/09/11 01:11:44;;;;;;;29.00;26.00;;;15.50;99.90;;;;;;4982119;28;20074;-75
2022/09/11 01:14:20;;;;;;;33.40;29.88;;;15.50;99.90;;;;;;4998063;28;20176;-75
2022/09/11 01:17:08;;;;;;;34.28;30.15;;;15.40;99.90;;;;;;4979669;28;20137;-75
2022/09/11 01:19:59;;;;;;;37.00;33.03;;;15.40;99.90;;;;;;4985357;28;20038;-75
2022/09/11 01:22:41;;;;;;;32.72;29.23;;;15.30;99.90;;;;;;4982585;28;20508;-75
2022/09/11 01:25:31;;;;;;;33.42;29.92;;;15.30;99.90;;;;;;4962548;28;20529;-75
2022/09/11 01:27:59;;;;;;;25.52;22.83;;;15.30;99.90;;;;;;4984657;28;20389;-75
2022/09/11 01:30:53;;;;;;;37.28;32.70;;;15.30;99.90;;;;;;4965204;28;20367;-75
2022/09/11 01:33:43;;;;;;;38.30;32.67;;;15.20;99.90;;;;;;4977550;28;20533;-75
2022/09/11 01:36:17;;;;;;;40.40;35.08;;;15.20;99.90;;;;;;5002314;28;20074;-75
2022/09/11 01:38:57;;;;;;;41.28;35.03;;;15.20;99.90;;;;;;4966836;28;20058;-74
2022/09/11 01:41:28;;;;;;;41.88;35.95;;;15.30;99.90;;;;;;4967487;28;20050;-75
2022/09/11 01:44:07;;;;;;;39.55;35.15;;;15.20;99.90;;;;;;5001268;28;20050;-75
2022/09/11 01:46:39;;;;;;;44.92;36.60;;;15.30;99.90;;;;;;4989138;28;20119;-75
2022/09/11 01:49:34;;;;;;;38.10;33.72;;;15.30;99.90;;;;;;4990077;28;20417;-75
2022/09/11 01:52:05;;;;;;;38.83;34.63;;;15.30;99.90;;;;;;4983348;28;20058;-75
2022/09/11 01:54:41;;;;;;;37.92;33.83;;;15.30;99.90;;;;;;4985644;28;20543;-75
2022/09/11 01:57:12;;;;;;;42.83;35.88;;;15.30;99.90;;;;;;4987210;28;20108;-75
2022/09/11 01:59:49;;;;;;;40.97;35.88;;;15.30;99.90;;;;;;4986362;28;20790;-75
2022/09/11 02:02:23;;;;;;;42.25;33.72;;;15.30;99.90;;;;;;4987272;28;20101;-75
2022/09/11 02:05:08;;;;;;;99.78;38.78;;;15.30;99.90;;;;;;5004678;28;20131;-75
2022/09/11 02:07:38;;;;;;;58.65;34.85;;;15.30;99.90;;;;;;4987924;28;20077;-75
2022/09/11 02:10:10;;;;;;;83.00;35.53;;;15.20;99.90;;;;;;4987519;28;20105;-75
2022/09/11 02:12:42;;;;;;;64.07;37.70;;;15.20;99.90;;;;;;4982814;28;20092;-75
2022/09/11 02:15:12;;;;;;;62.08;34.40;;;15.20;99.90;;;;;;4983716;28;20100;-75
2022/09/11 02:17:51;;;;;;;47.47;34.75;;;15.10;99.90;;;;;;4966828;28;20046;-76
2022/09/11 02:20:19;;;;;;;43.88;33.20;;;15.10;99.90;;;;;;5001549;28;20050;-75
2022/09/11 02:22:45;;;;;;;59.30;33.75;;;15.10;99.90;;;;;;4983478;28;20042;-75
2022/09/11 02:25:12;;;;;;;55.58;32.83;;;15.10;99.90;;;;;;4986609;28;20125;-75
2022/09/11 02:27:38;;;;;;;42.40;33.08;;;15.10;99.90;;;;;;4985850;28;20030;-76
2022/09/11 02:30:05;;;;;;;53.70;31.88;;;15.10;99.90;;;;;;5001084;28;20062;-75
2022/09/11 02:32:32;;;;;;;47.95;31.23;;;15.00;99.90;;;;;;4998669;28;20046;-76
2022/09/11 02:34:59;;;;;;;99.38;32.95;;;15.00;99.90;;;;;;4967720;28;20104;-76
2022/09/11 02:37:44;;;;;;;42.92;32.63;;;15.00;99.90;;;;;;4985023;28;20050;-75
2022/09/11 02:40:16;;;;;;;89.72;33.13;;;15.00;99.90;;;;;;4983365;28;20104;-75
2022/09/11 02:43:12;;;;;;;59.25;31.88;;;15.00;99.90;;;;;;4984936;28;20050;-75
2022/09/11 02:46:01;;;;;;;136.10;32.23;;;15.00;99.90;;;;;;4967481;28;20520;-75
2022/09/11 02:48:35;;;;;;;74.63;30.42;;;14.90;99.90;;;;;;4967408;28;20064;-75
2022/09/11 02:51:14;;;;;;;55.85;29.88;;;14.90;99.90;;;;;;4985846;28;20053;-75
2022/09/11 02:54:09;;;;;;;123.45;32.15;;;14.90;99.90;;;;;;4985426;28;20501;-75
2022/09/11 02:56:43;;;;;;;80.68;29.67;;;14.80;99.90;;;;;;4968129;28;20074;-75
2022/09/11 02:59:14;;;;;;;72.93;30.17;;;14.80;99.90;;;;;;4971082;28;20545;-75
2022/09/11 03:01:50;;;;;;;161.63;29.98;;;14.70;99.90;;;;;;4968728;28;20042;-75
2022/09/11 03:04:17;;;;;;;39.70;29.20;;;14.80;99.90;;;;;;4981633;28;20073;-75
2022/09/11 03:06:44;;;;;;;77.80;29.00;;;14.70;99.90;;;;;;4983115;28;20414;-75
2022/09/11 03:09:09;;;;;;;30.95;27.65;;;14.80;99.90;;;;;;4982209;28;20116;-75
2022/09/11 03:11:35;;;;;;;30.75;27.67;;;14.80;99.90;;;;;;4984349;28;20046;-75
2022/09/11 03:14:01;;;;;;;31.30;28.00;;;14.80;99.90;;;;;;4966814;28;20105;-75
2022/09/11 03:16:26;;;;;;;29.80;26.83;;;14.80;99.90;;;;;;4968882;28;20129;-75
2022/09/11 03:18:52;;;;;;;30.50;27.13;;;14.70;99.90;;;;;;5002074;28;20046;-75
2022/09/11 03:21:17;;;;;;;30.98;27.58;;;14.80;99.90;;;;;;4987763;28;20038;-75
2022/09/11 03:23:43;;;;;;;28.50;25.65;;;14.80;99.90;;;;;;4998248;28;20152;-75
2022/09/11 03:26:09;;;;;;;27.25;24.67;;;14.80;99.90;;;;;;4966165;28;20038;-75
2022/09/11 03:28:35;;;;;;;29.45;26.40;;;14.80;99.90;;;;;;4985393;28;20117;-75
2022/09/11 03:31:01;;;;;;;28.38;25.58;;;14.80;99.90;;;;;;4986570;28;20652;-75
2022/09/11 03:33:28;;;;;;;27.15;24.60;;;14.70;99.90;;;;;;4983169;28;20046;-75
2022/09/11 03:35:53;;;;;;;24.92;22.63;;;14.80;99.90;;;;;;4986506;28;20050;-75
2022/09/11 03:38:19;;;;;;;26.67;24.05;;;14.70;99.90;;;;;;4978669;28;20100;-75
2022/09/11 03:40:45;;;;;;;27.60;24.95;;;14.80;99.90;;;;;;4998511;28;20089;-75
2022/09/11 03:43:11;;;;;;;26.13;23.63;;;14.70;99.90;;;;;;4985527;28;20893;-75
2022/09/11 03:45:37;;;;;;;27.45;24.83;;;14.70;99.90;;;;;;4986754;28;20497;-75
2022/09/11 03:48:05;;;;;;;29.27;26.48;;;14.80;99.90;;;;;;4985274;28;20042;-75
2022/09/11 03:50:30;;;;;;;;;;;14.70;99.90;;;;;;4987005;28;20543;-75
2022/09/11 03:52:57;;;;;;;26.38;23.88;;;14.70;99.90;;;;;;4979464;28;19930;-76
2022/09/11 03:55:22;;;;;;;26.60;24.10;;;14.70;99.90;;;;;;4986054;28;20035;-75
2022/09/11 03:57:48;;;;;;;26.33;23.83;;;14.70;99.90;;;;;;4967336;28;20045;-75
2022/09/11 04:00:14;;;;;;;24.65;22.42;;;14.70;99.90;;;;;;4984588;28;20414;-75
2022/09/11 04:02:40;;;;;;;25.58;23.17;;;14.70;99.90;;;;;;4968702;28;20045;-75
2022/09/11 04:05:07;;;;;;;25.40;23.05;;;14.60;99.90;;;;;;4970445;28;20047;-75
2022/09/11 04:07:33;;;;;;;26.30;23.80;;;14.60;99.90;;;;;;4985875;28;20035;-75
2022/09/11 04:09:59;;;;;;;65.70;25.80;;;14.60;99.90;;;;;;4985664;28;20057;-75
2022/09/11 04:12:25;;;;;;;37.30;25.48;;;14.50;99.90;;;;;;4982342;28;20046;-75
2022/09/11 04:14:50;;;;;;;27.67;24.73;;;14.50;99.90;;;;;;4965565;28;20042;-75
2022/09/11 04:17:16;;;;;;;53.92;25.52;;;14.50;99.90;;;;;;4984194;28;20096;-75
2022/09/11 04:19:42;;;;;;;28.05;25.23;;;14.40;99.90;;;;;;4983969;28;20030;-75
2022/09/11 04:22:07;;;;;;;57.22;25.85;;;14.40;99.90;;;;;;4965666;28;20058;-75
2022/09/11 04:24:34;;;;;;;61.88;27.13;;;14.40;99.90;;;;;;4986335;28;20137;-75
2022/09/11 04:26:59;;;;;;;198.25;29.13;;;14.40;99.90;;;;;;4965240;28;20042;-75
2022/09/11 04:29:26;;;;;;;125.97;26.98;;;14.40;99.90;;;;;;4982906;28;20117;-75
2022/09/11 04:31:52;;;;;;;61.90;24.58;;;14.30;99.90;;;;;;4984747;28;20046;-75
2022/09/11 04:34:18;;;;;;;33.72;24.00;;;14.30;99.90;;;;;;4983677;28;20105;-75
2022/09/11 04:36:43;;;;;;;30.88;24.58;;;14.30;99.90;;;;;;4982784;28;20127;-75
2022/09/11 04:39:10;;;;;;;24.13;21.95;;;14.30;99.90;;;;;;4985472;28;20042;-75
2022/09/11 04:41:36;;;;;;;24.50;22.10;;;14.30;99.90;;;;;;4984197;28;20052;-75
2022/09/11 04:44:02;;;;;;;24.70;22.50;;;14.20;99.90;;;;;;4968521;28;20380;-75
2022/09/11 04:46:28;;;;;;;23.50;21.50;;;14.30;99.90;;;;;;4982359;28;20050;-75
2022/09/11 04:48:58;;;;;;;22.23;20.27;;;14.30;99.90;;;;;;4981109;28;20078;-75
2022/09/11 04:51:33;;;;;;;22.42;20.45;;;14.30;99.90;;;;;;4968007;28;20493;-75
2022/09/11 04:54:00;;;;;;;21.38;19.58;;;14.40;99.90;;;;;;5001362;28;20042;-75
2022/09/11 04:56:29;;;;;;;22.67;20.88;;;14.40;99.90;;;;;;4983998;28;20060;-76
2022/09/11 04:58:58;;;;;;;22.60;20.70;;;14.30;99.90;;;;;;4984035;28;20042;-75
2022/09/11 05:01:26;;;;;;;22.98;20.98;;;14.40;99.90;;;;;;4978079;28;20045;-75
2022/09/11 05:03:52;;;;;;;21.48;19.58;;;14.30;99.90;;;;;;4966647;28;20072;-75
2022/09/11 05:06:18;;;;;;;21.88;20.05;;;14.30;99.90;;;;;;4966145;28;20529;-75
2022/09/11 05:08:44;;;;;;;21.20;19.30;;;14.30;99.90;;;;;;4961200;28;20050;-75
2022/09/11 05:11:16;;;;;;;20.92;19.17;;;14.30;99.90;;;;;;4965067;28;20160;-75
2022/09/11 05:13:42;;;;;;;23.35;21.35;;;14.30;99.90;;;;;;4985095;28;20745;-75
2022/09/11 05:16:10;;;;;;;22.42;20.52;;;14.20;99.90;;;;;;4980916;28;20046;-76
2022/09/11 05:18:37;;;;;;;24.77;22.58;;;14.20;99.90;;;;;;4984672;28;20133;-75
2022/09/11 05:21:13;;;;;;;24.13;21.92;;;14.20;99.90;;;;;;4986311;28;20385;-75
2022/09/11 05:23:40;;;;;;;23.35;21.25;;;14.20;99.90;;;;;;4994473;28;20042;-75
2022/09/11 05:26:12;;;;;;;22.83;20.73;;;14.20;99.90;;;;;;4997961;28;20046;-75
2022/09/11 05:28:37;;;;;;;22.95;20.80;;;14.20;99.90;;;;;;4980139;28;20046;-75
2022/09/11 05:31:11;;;;;;;23.50;21.50;;;14.20;99.90;;;;;;4984511;28;20116;-75
2022/09/11 05:33:36;;;;;;;21.75;19.95;;;14.30;99.90;;;;;;5001662;28;20699;-75
2022/09/11 05:36:04;;;;;;;21.98;20.17;;;14.30;99.90;;;;;;4983462;28;20046;-75
2022/09/11 05:38:29;;;;;;;;;;;14.30;99.90;;;;;;5001719;28;20050;-76
2022/09/11 05:40:55;;;;;;;21.42;19.58;;;14.30;99.90;;;;;;4965892;28;19976;-75
2022/09/11 05:43:21;;;;;;;20.52;18.75;;;14.30;99.90;;;;;;4996040;28;20042;-75
2022/09/11 05:45:57;;;;;;;21.13;19.23;;;14.30;99.90;;;;;;4964227;28;20501;-75
2022/09/11 05:48:23;;;;;;;20.73;18.92;;;14.40;99.90;;;;;;4966346;28;20042;-75
2022/09/11 05:50:58;;;;;;;22.02;20.02;;;14.40;99.90;;;;;;4983058;28;20038;-75
2022/09/11 05:53:24;;;;;;;22.13;20.13;;;14.50;99.90;;;;;;4984413;28;20556;-75
2022/09/11 05:55:50;;;;;;;22.90;20.80;;;14.50;99.90;;;;;;4967305;28;20042;-75
2022/09/11 05:58:17;;;;;;;21.83;19.92;;;14.50;99.90;;;;;;4997161;28;20524;-75
2022/09/11 06:00:47;;;;;;;23.90;21.80;;;14.40;99.90;;;;;;4980256;28;20138;-75
2022/09/11 06:03:18;;;;;;;23.42;21.42;;;14.50;99.90;;;;;;4996623;28;20772;-75
2022/09/11 06:05:44;;;;;;;24.48;22.27;;;14.50;99.90;;;;;;4979215;28;20046;-75
2022/09/11 06:08:10;;;;;;;23.00;21.00;;;14.50;99.90;;;;;;4985070;28;20057;-75
2022/09/11 06:10:45;;;;;;;24.97;22.77;;;14.50;99.90;;;;;;4984774;28;20038;-75
2022/09/11 06:13:10;;;;;;;25.77;23.48;;;14.60;99.90;;;;;;4983143;28;20044;-75
2022/09/11 06:15:43;;;;;;;25.25;22.95;;;14.70;99.90;;;;;;4980091;28;20049;-75
2022/09/11 06:18:09;;;;;;;25.05;22.75;;;14.70;99.90;;;;;;4979787;28;20133;-75
2022/09/11 06:20:34;;;;;;;25.73;23.35;;;14.70;99.90;;;;;;4987224;28;20149;-75
2022/09/11 06:23:00;;;;;;;25.33;22.92;;;14.80;99.90;;;;;;4983475;28;20128;-76
2022/09/11 06:25:25;;;;;;;25.48;23.25;;;14.80;99.90;;;;;;4987167;28;20502;-75
2022/09/11 06:27:51;;;;;;;26.00;23.52;;;14.90;99.90;;;;;;4988320;28;20042;-77
2022/09/11 06:30:16;;;;;;;25.77;23.52;;;14.90;99.90;;;;;;4986658;28;20537;-76
2022/09/11 06:32:42;;;;;;;24.20;22.10;;;14.90;99.90;;;;;;4967531;28;20038;-74
2022/09/11 06:35:09;;;;;;;26.08;23.67;;;15.00;99.90;;;;;;4981444;28;20046;-84
2022/09/11 06:37:35;;;;;;;25.88;23.48;;;15.00;99.90;;;;;;4982358;28;20710;-84
2022/09/11 06:40:01;;;;;;;25.73;23.38;;;15.00;99.90;;;;;;4983292;28;20046;-83
2022/09/11 06:42:27;;;;;;;23.05;21.05;;;15.10;99.90;;;;;;4987557;28;20074;-84
2022/09/11 06:44:53;;;;;;;24.80;22.42;;;15.10;99.90;;;;;;4969464;28;20577;-81
2022/09/11 06:47:19;;;;;;;24.50;22.33;;;15.20;99.90;;;;;;4975569;28;20188;-84
2022/09/11 06:49:45;;;;;;;23.50;21.35;;;15.10;99.90;;;;;;4973482;28;20047;-82
2022/09/11 06:52:11;;;;;;;23.55;21.50;;;15.10;99.90;;;;;;4975723;28;20334;-81
2022/09/11 06:54:36;;;;;;;24.85;22.67;;;15.10;99.90;;;;;;4990887;28;20096;-80
2022/09/11 06:57:02;;;;;;;24.42;22.23;;;15.10;99.90;;;;;;4972812;28;20138;-80
2022/09/11 06:59:27;;;;;;;27.52;24.92;;;15.20;99.90;;;;;;4972814;28;20122;-80
2022/09/11 07:01:54;;;;;;;26.20;23.73;;;15.20;99.90;;;;;;4983276;28;20054;-80
2022/09/11 07:04:20;;;;;;;25.60;23.27;;;15.20;99.90;;;;;;5002561;28;20048;-76
2022/09/11 07:06:45;;;;;;;25.30;22.90;;;15.30;99.90;;;;;;5008714;28;20045;-82
2022/09/11 07:09:11;;;;;;;26.13;23.63;;;15.30;99.90;;;;;;4991334;28;21117;-82
2022/09/11 07:11:42;;;;;;;25.92;23.63;;;15.40;99.90;;;;;;4989992;28;20058;-80
2022/09/11 07:14:08;;;;;;;27.13;24.65;;;15.50;99.90;;;;;;4985915;28;20099;-83
2022/09/11 07:16:34;;;;;;;25.58;23.25;;;15.50;99.90;;;;;;4987030;28;20050;-79
2022/09/11 07:18:59;;;;;;;26.80;24.30;;;15.60;99.90;;;;;;4988742;28;20040;-80
2022/09/11 07:21:26;;;;;;;26.98;24.45;;;15.80;99.90;;;;;;4998264;28;20046;-83
2022/09/11 07:23:55;;;;;;;27.33;24.58;;;15.80;99.90;;;;;;4990764;28;20104;-79
2022/09/11 07:26:23;;;;;;;27.50;24.77;;;15.80;99.90;;;;;;4992689;28;20042;-81
2022/09/11 07:28:50;;;;;;;26.00;23.52;;;15.90;99.90;;;;;;4991492;28;20108;-79
2022/09/11 07:31:24;;;;;;;26.52;23.80;;;16.00;99.90;;;;;;4985707;28;20051;-79
2022/09/11 07:33:55;;;;;;;29.05;26.17;;;16.00;99.90;;;;;;4987856;28;20473;-80
2022/09/11 07:36:33;;;;;;;26.83;24.13;;;16.10;99.90;;;;;;4987438;28;20114;-79
2022/09/11 07:38:59;;;;;;;27.55;24.95;;;16.20;99.90;;;;;;4988923;28;20058;-79
2022/09/11 07:41:27;;;;;;;29.08;25.95;;;16.20;99.90;;;;;;4985247;28;20863;-78
2022/09/11 07:43:55;;;;;;;28.48;25.45;;;16.40;99.90;;;;;;5003643;28;20042;-77
2022/09/11 07:46:23;;;;;;;27.55;24.77;;;16.30;99.90;;;;;;4966463;28;20089;-82
2022/09/11 07:48:49;;;;;;;30.17;25.98;;;16.50;99.90;;;;;;4985312;28;20044;-79
2022/09/11 07:51:17;;;;;;;28.20;25.08;;;16.50;99.90;;;;;;4985836;28;20474;-81
2022/09/11 07:53:53;;;;;;;30.63;27.42;;;16.60;99.90;;;;;;4985427;28;20053;-80
2022/09/11 07:56:22;;;;;;;33.55;27.58;;;16.70;99.90;;;;;;4985217;28;20054;-82
2022/09/11 07:58:53;;;;;;;29.27;26.38;;;16.80;99.90;;;;;;4984374;28;20042;-81
2022/09/11 08:01:25;;;;;;;28.70;25.67;;;16.80;99.90;;;;;;4984159;28;20046;-81
2022/09/11 08:04:03;;;;;;;28.88;25.90;;;16.90;99.90;;;;;;4985601;28;20088;-82
2022/09/11 08:06:31;;;;;;;29.10;26.00;;;17.00;99.90;;;;;;4968037;28;20138;-85
2022/09/11 08:09:00;;;;;;;28.35;25.35;;;17.10;99.90;;;;;;4985845;28;20129;-86
2022/09/11 08:11:27;;;;;;;31.33;25.15;;;17.10;99.90;;;;;;4967135;28;20410;-86
2022/09/11 08:13:54;;;;;;;27.80;24.67;;;17.20;99.90;;;;;;4983282;28;20046;-84
2022/09/11 08:16:22;;;;;;;28.63;25.52;;;17.20;99.90;;;;;;5001000;28;21057;-84
2022/09/11 08:18:47;;;;;;;26.35;23.45;;;17.30;99.90;;;;;;4986243;28;20101;-83
2022/09/11 08:21:14;;;;;;;27.58;24.38;;;17.40;99.90;;;;;;4983333;28;20599;-84
2022/09/11 08:23:41;;;;;;;27.25;24.55;;;17.40;99.90;;;;;;4983352;28;20144;-82
2022/09/11 08:26:13;;;;;;;28.02;25.20;;;17.50;99.90;;;;;;4968250;28;20401;-84
2022/09/11 08:28:41;;;;;;;27.33;24.48;;;17.50;99.90;;;;;;4983596;28;20374;-85
2022/09/11 08:31:07;;;;;;;26.55;23.80;;;17.50;99.90;;;;;;4985514;28;20494;-86
2022/09/11 08:33:33;;;;;;;27.52;23.90;;;17.60;99.90;;;;;;4984825;28;20112;-88
2022/09/11 08:36:02;;;;;;;26.10;23.50;;;17.70;99.90;;;;;;4964989;28;20116;-79
2022/09/11 08:38:28;;;;;;;27.20;22.65;;;17.80;99.90;;;;;;4996935;28;20058;-84
2022/09/11 08:40:56;;;;;;;25.70;21.65;;;17.80;99.90;;;;;;4985849;28;20048;-83
2022/09/11 08:43:25;;;;;;;24.90;22.40;;;17.90;99.90;;;;;;4984176;28;20038;-83
2022/09/11 08:45:55;;;;;;;23.20;20.63;;;18.00;99.90;;;;;;4987691;28;20039;-83
2022/09/11 08:48:31;;;;;;;22.92;20.67;;;18.00;99.90;;;;;;4982078;28;20678;-79
2022/09/11 08:50:57;;;;;;;21.67;19.53;;;18.00;99.90;;;;;;4985013;28;20053;-81
2022/09/11 08:53:24;;;;;;;21.40;19.20;;;18.00;99.90;;;;;;4966744;28;20046;-81
2022/09/11 08:55:55;;;;;;;;;;;18.10;99.90;;;;;;4987342;28;20040;-81
2022/09/11 08:58:51;;;;;;;20.23;17.40;;;18.00;99.90;;;;;;4980706;28;19929;-82
2022/09/11 09:01:59;;;;;;;16.70;15.00;;;18.10;99.90;;;;;;4984348;28;20069;-80
2022/09/11 09:04:44;;;;;;;15.05;12.48;;;18.20;99.90;;;;;;4962649;28;20070;-80
2022/09/11 09:07:38;;;;;;;14.10;12.45;;;18.30;99.90;;;;;;4987066;28;20108;-82
2022/09/11 09:10:38;;;;;;;15.40;13.80;;;18.40;99.90;;;;;;4983340;28;20061;-79
2022/09/11 09:13:40;;;;;;;16.92;12.45;;;18.40;99.90;;;;;;4985459;28;20050;-82
2022/09/11 09:16:17;;;;;;;16.42;12.10;;;18.50;99.90;;;;;;4940204;28;20463;-77
2022/09/11 09:18:49;;;;;;;15.45;11.95;;;18.60;99.90;;;;;;4975879;28;20277;-81
2022/09/11 09:21:27;;;;;;;14.73;10.63;;;18.60;99.90;;;;;;4985192;28;20536;-82
2022/09/11 09:24:00;;;;;;;12.13;9.00;;;18.60;99.90;;;;;;4986695;28;20045;-80
2022/09/11 09:26:38;;;;;;;11.35;8.10;;;18.70;99.90;;;;;;4968031;28;20058;-79
2022/09/11 09:29:13;;;;;;;15.27;11.80;;;18.70;99.90;;;;;;4984446;28;20058;-82
2022/09/11 09:31:40;;;;;;;15.73;12.50;;;18.80;99.90;;;;;;4985005;28;20054;-84
2022/09/11 09:34:14;;;;;;;20.95;18.85;;;18.80;99.90;;;;;;4986694;28;20046;-83
2022/09/11 09:36:49;;;;;;;17.95;16.23;;;18.80;99.90;;;;;;4979835;28;20046;-84
2022/09/11 09:39:16;;;;;;;18.38;16.48;;;18.80;99.90;;;;;;4982395;28;20116;-84
2022/09/11 09:42:22;;;;;;;18.83;16.70;;;18.80;99.90;;;;;;4982500;28;20074;-78
2022/09/11 09:44:56;;;;;;;17.90;15.60;;;18.80;99.90;;;;;;4984637;28;20058;-84
2022/09/11 09:47:22;;;;;;;16.00;14.18;;;18.70;99.90;;;;;;4983318;28;20556;-84
2022/09/11 09:49:49;;;;;;;17.20;13.63;;;18.70;99.90;;;;;;4999628;28;20039;-86
2022/09/11 09:52:23;;;;;;;14.38;12.77;;;18.80;99.90;;;;;;4970402;28;20057;-84
2022/09/11 09:54:56;;;;;;;13.90;11.98;;;18.80;99.90;;;;;;4989110;28;20038;-84
2022/09/11 09:57:29;;;;;;;14.07;11.90;;;18.90;99.90;;;;;;4978580;28;20046;-83
2022/09/11 10:00:18;;;;;;;15.45;13.80;;;19.00;99.90;;;;;;4983052;28;20043;-80
2022/09/11 10:02:53;;;;;;;15.73;12.73;;;19.20;99.90;;;;;;4979298;28;20054;-82
2022/09/11 10:05:31;;;;;;;13.50;10.82;;;19.30;99.90;;;;;;4986147;28;20096;-84
2022/09/11 10:08:03;;;;;;;12.68;9.57;;;19.50;99.90;;;;;;4985208;28;20096;-81
2022/09/11 10:10:30;;;;;;;10.57;7.75;;;19.70;99.90;;;;;;4987084;28;20057;-83
2022/09/11 10:13:03;;;;;;;11.27;7.97;;;19.80;99.90;;;;;;4985417;28;20089;-80
2022/09/11 10:15:29;;;;;;;12.82;9.32;;;20.00;99.90;;;;;;4990436;28;20042;-83
2022/09/11 10:18:22;;;;;;;11.40;8.40;;;20.10;99.90;;;;;;4986570;28;20112;-80
2022/09/11 10:20:48;;;;;;;8.93;7.18;;;20.20;99.90;;;;;;4982570;28;20050;-86
2022/09/11 10:23:25;;;;;;;11.43;9.48;;;20.30;99.90;;;;;;4986039;28;20076;-81
2022/09/11 10:25:51;;;;;;;10.30;7.85;;;20.30;99.90;;;;;;4990521;28;20521;-88
2022/09/11 10:28:37;;;;;;;8.80;6.87;;;20.20;99.90;;;;;;4987338;28;20058;-79
2022/09/11 10:31:03;;;;;;;9.27;7.43;;;20.20;99.90;;;;;;4981246;28;20133;-77
2022/09/11 10:33:36;;;;;;;11.67;7.17;;;20.00;99.90;;;;;;4968254;28;20061;-78
2022/09/11 10:36:05;;;;;;;9.60;6.88;;;20.00;99.90;;;;;;4982640;28;20309;-86
2022/09/11 10:38:36;;;;;;;8.43;6.45;;;20.00;99.90;;;;;;4988157;28;20565;-85
2022/09/11 10:41:18;;;;;;;6.88;5.07;;;20.10;99.90;;;;;;4969102;28;20050;-83
2022/09/11 10:44:01;;;;;;;8.05;5.43;;;20.10;99.90;;;;;;4969672;28;20077;-85
2022/09/11 10:46:38;;;;;;;8.27;7.15;;;20.20;99.90;;;;;;4987442;28;20047;-79
2022/09/11 10:49:21;;;;;;;7.80;5.85;;;20.30;99.90;;;;;;4987465;28;20149;-83
2022/09/11 10:52:21;;;;;;;8.40;6.28;;;20.40;99.90;;;;;;4959791;28;20117;-84
2022/09/11 10:54:52;;;;;;;7.10;5.55;;;20.50;99.90;;;;;;4954461;28;20054;-81
2022/09/11 10:57:36;;;;;;;10.55;5.45;;;20.50;99.90;;;;;;4983706;28;20109;-83
2022/09/11 11:00:19;;;;;;;7.80;5.05;;;20.50;99.90;;;;;;4963539;28;20054;-84
2022/09/11 11:02:56;;;;;;;9.82;4.22;;;20.60;99.90;;;;;;4966302;28;20046;-84
2022/09/11 11:05:37;;;;;;;;;;;20.60;99.90;;;;;;4987667;28;20046;-84
2022/09/11 11:08:24;;;;;;;6.53;4.32;;;20.50;99.90;;;;;;4994156;28;19936;-87
2022/09/11 11:11:02;;;;;;;6.13;3.60;;;20.50;99.90;;;;;;4984245;28;20042;-86
2022/09/11 11:13:54;;;;;;;7.30;4.07;;;20.60;99.90;;;;;;4985986;28;20125;-87
2022/09/11 11:16:26;;;;;;;6.47;4.45;;;20.70;99.90;;;;;;4981718;28;20426;-88
2022/09/11 11:19:05;;;;;;;8.25;4.00;;;20.80;99.90;;;;;;4968425;28;20193;-89
2022/09/11 11:21:44;;;;;;;6.43;3.90;;;20.90;99.90;;;;;;4987093;28;20053;-84
2022/09/11 11:24:30;;;;;;;6.43;3.75;;;20.90;99.90;;;;;;4967753;28;20043;-86
2022/09/11 11:27:33;;;;;;;5.55;3.78;;;21.00;99.90;;;;;;4986020;28;20097;-87
2022/09/11 11:30:16;;;;;;;6.05;4.63;;;21.00;99.90;;;;;;4985655;28;20532;-76
2022/09/11 11:32:57;;;;;;;8.13;4.68;;;21.00;99.90;;;;;;4966836;28;20053;-76
2022/09/11 11:35:33;;;;;;;6.28;4.80;;;21.00;99.90;;;;;;4968504;28;20489;-76
2022/09/11 11:38:23;;;;;;;8.10;4.53;;;21.00;99.90;;;;;;4961260;28;20050;-81
2022/09/11 11:40:53;;;;;;;7.10;4.50;;;20.90;99.90;;;;;;4960179;28;20052;-75
2022/09/11 11:43:26;;;;;;;6.95;4.18;;;20.80;99.90;;;;;;4968782;28;20533;-77
2022/09/11 11:46:00;;;;;;;8.30;4.20;;;20.80;99.90;;;;;;4986545;28;20042;-79
2022/09/11 11:48:49;;;;;;;6.43;3.85;;;20.70;99.90;;;;;;4967552;28;20149;-79
2022/09/11 11:51:23;;;;;;;8.07;3.78;;;20.80;99.90;;;;;;4986227;28;20052;-79
2022/09/11 11:54:08;;;;;;;6.28;3.65;;;20.80;99.90;;;;;;4985856;28;20642;-79
2022/09/11 11:56:50;;;;;;;7.13;3.72;;;20.80;99.90;;;;;;4983833;28;20514;-78
2022/09/11 11:59:46;;;;;;;6.65;3.80;;;20.80;99.90;;;;;;4985055;28;20044;-76
2022/09/11 12:02:28;;;;;;;5.90;3.00;;;20.70;99.90;;;;;;4983949;28;20524;-78
2022/09/11 12:05:06;;;;;;;7.13;3.50;;;20.70;99.90;;;;;;4987729;28;20042;-76
2022/09/11 12:07:35;;;;;;;4.93;3.33;;;20.90;99.90;;;;;;4974452;28;20438;-79
2022/09/11 12:10:04;;;;;;;7.38;4.20;;;21.00;99.90;;;;;;4987043;28;20564;-79
2022/09/11 12:12:46;;;;;;;6.35;3.83;;;21.00;99.90;;;;;;4985910;28;20057;-78
2022/09/11 12:15:24;;;;;;;6.50;3.83;;;21.20;99.90;;;;;;4982274;28;20482;-81
2022/09/11 12:18:05;;;;;;;6.63;3.22;;;21.30;99.90;;;;;;4986994;28;20042;-80
2022/09/11 12:20:40;;;;;;;4.35;2.83;;;21.40;99.90;;;;;;4984500;28;20042;-79
2022/09/11 12:23:27;;;;;;;6.32;2.60;;;21.60;99.90;;;;;;4987849;28;20042;-80
2022/09/11 12:26:21;;;;;;;5.35;2.63;;;21.70;99.90;;;;;;4984565;28;20792;-81
2022/09/11 12:28:48;;;;;;;6.40;2.70;;;21.90;99.90;;;;;;4972413;28;20568;-80
2022/09/11 12:31:15;;;;;;;6.07;2.60;;;22.00;99.90;;;;;;4984306;28;20112;-82
2022/09/11 12:33:42;;;;;;;5.40;3.10;;;22.00;99.90;;;;;;4986926;28;20050;-80
2022/09/11 12:36:11;;;;;;;5.55;3.17;;;22.10;99.90;;;;;;4980874;28;20465;-81
2022/09/11 12:38:51;;;;;;;6.13;2.90;;;22.10;99.90;;;;;;5003304;28;20089;-80
2022/09/11 12:41:26;;;;;;;4.90;2.70;;;22.20;99.90;;;;;;4965733;28;20038;-79
2022/09/11 12:43:53;;;;;;;6.00;2.90;;;22.30;99.90;;;;;;4988732;28;20073;-79
2022/09/11 12:46:22;;;;;;;6.85;3.13;;;22.40;99.90;;;;;;4975448;28;20508;-80
2022/09/11 12:49:05;;;;;;;10.93;3.65;;;22.50;99.90;;;;;;4968497;28;20058;-78
2022/09/11 12:51:38;;;;;;;4.78;3.20;;;22.60;99.90;;;;;;4985270;28;20062;-79
2022/09/11 12:54:37;;;;;;;5.47;2.50;;;22.70;99.90;;;;;;4978762;28;20043;-78
2022/09/11 12:57:14;;;;;;;3.78;2.58;;;22.70;99.90;;;;;;4965375;28;20061;-79
2022/09/11 12:59:44;;;;;;;4.30;2.53;;;22.60;99.90;;;;;;4983786;28;20034;-79